Etusivu
METAR-TAF:

METAR-TAF

Lentoasemat :

Sotilaslentoasema

Tafraoui, Algeria

Leveyspiiri: 35-32-33N, Pituuspiiri: 000-31-56W, korkeus merenpinnasta: 112 m

Tämänhetkinen sää

Tämä raportti tehtiin 2 tuntia ja 12 minuuttia sitten, kello 12.00 UTC
Tuuli 16 kn lännestä
Lämpötila 18°C
Kosteus 42%
Ilmanpaine 1019 hPa
Näkyvyys 10 km tai enemmän
ei pilviä alle 1500 m:ssä eikä cumulonimbus-pilviä

METAR: DAOL 251200Z 26016KT CAVOK 18/05 Q1019

Aika: 15:12 (14:12 UTC)


TAF: puuttuu

Säähavainnot ja -ennusteet yli 4000 lentoasemalta (METAR- ja TAF-raportit).

Käytössä olevat sääasemat on merkitty karttaan keltaisilla ja punaisilla pisteillä.

Aseta hiiri pisteen päälle nähdäksesi sääaseman nimen.

Klikkaa sitten nähdäksesi säähavainnot ja -ennusteet.

Kartan vaihtaminen: klikkaa mustalla rastilla varustettuja vihreitä pisteitä, niin voit zoomata sisään; viivalla varustettua vihreää pistettä, niin voit zoomata ulos tai vihreitä nuolia, niin pääset viereisille kartoille.


METAR-TAF: